Time;durP1;ratioP1;P1;durP2;ratioP2;P2;SDS_P1;SDS_P2;PMS_P1;PMS_P2;Temp;Humidity;BMP_temperature;BMP_pressure;BME280_temperature;BME280_humidity;BME280_pressure;Samples;Min_cycle;Max_cycle;Signal;HPM_P1;HPM_P2
2021/03/07 00:01:37;;;;;;;4.30;2.45;;;-5.70;71.00;;;;;;5079879;28;20040;-78
2021/03/07 00:04:03;;;;;;;4.55;3.05;;;-5.60;71.00;;;;;;5080748;28;20024;-76
2021/03/07 00:06:29;;;;;;;7.40;2.88;;;-5.60;71.10;;;;;;5099158;28;20024;-77
2021/03/07 00:08:55;;;;;;;4.18;2.40;;;-5.50;71.00;;;;;;5081149;28;20469;-77
2021/03/07 00:11:21;;;;;;;6.63;2.38;;;-5.50;71.00;;;;;;5080691;28;20027;-76
2021/03/07 00:13:47;;;;;;;4.13;1.88;;;-5.50;71.00;;;;;;5100222;28;20022;-78
2021/03/07 00:16:13;;;;;;;8.77;3.22;;;-5.50;70.70;;;;;;5115162;28;20107;-77
2021/03/07 00:18:42;;;;;;;7.97;3.08;;;-5.40;70.70;;;;;;5099824;28;20052;-77
2021/03/07 00:21:11;;;;;;;8.45;3.05;;;-5.40;70.30;;;;;;5094946;28;20402;-78
2021/03/07 00:23:37;;;;;;;4.90;3.00;;;-5.40;69.80;;;;;;5083966;28;20020;-77
2021/03/07 00:26:03;;;;;;;7.18;3.00;;;-5.40;69.70;;;;;;5098435;28;20047;-77
2021/03/07 00:28:28;;;;;;;5.82;2.60;;;-5.40;69.50;;;;;;5079987;28;20062;-75
2021/03/07 00:30:54;;;;;;;5.28;2.53;;;-5.40;70.20;;;;;;5110567;28;20051;-78
2021/03/07 00:33:22;;;;;;;4.55;2.75;;;-5.40;69.30;;;;;;5085647;28;20023;-76
2021/03/07 00:35:48;;;;;;;3.53;2.83;;;-5.40;69.30;;;;;;5091071;28;20061;-77
2021/03/07 00:38:14;;;;;;;5.03;2.25;;;-5.30;69.20;;;;;;5105757;28;20020;-77
2021/03/07 00:40:40;;;;;;;3.90;2.60;;;-5.30;69.10;;;;;;5098581;28;20039;-77
2021/03/07 00:43:06;;;;;;;5.40;3.20;;;-5.30;68.90;;;;;;5079795;28;20036;-77
2021/03/07 00:45:33;;;;;;;6.57;2.97;;;-5.30;68.60;;;;;;5084130;28;20427;-76
2021/03/07 00:47:59;;;;;;;3.53;2.17;;;-5.20;68.60;;;;;;5094304;28;20380;-78
2021/03/07 00:50:27;;;;;;;5.80;2.20;;;-5.20;68.40;;;;;;5076815;28;20020;-77
2021/03/07 00:52:56;;;;;;;2.60;1.90;;;-5.30;68.40;;;;;;5075936;28;20024;-77
2021/03/07 00:55:23;;;;;;;6.50;2.65;;;-5.30;68.10;;;;;;5094655;28;20020;-76
2021/03/07 00:57:49;;;;;;;5.93;2.10;;;-5.40;68.30;;;;;;5094815;28;20103;-76
2021/03/07 01:00:19;;;;;;;3.65;2.30;;;-5.30;68.60;;;;;;5096963;28;20048;-77
2021/03/07 01:02:45;;;;;;;3.58;2.72;;;-5.30;68.50;;;;;;5107822;28;20539;-76
2021/03/07 01:05:11;;;;;;;4.63;2.35;;;-5.30;68.50;;;;;;5107763;28;20096;-74
2021/03/07 01:07:37;;;;;;;6.15;2.47;;;-5.20;68.60;;;;;;5076774;28;20042;-75
2021/03/07 01:10:19;;;;;;;3.80;2.15;;;-5.20;68.40;;;;;;5089864;28;20016;-76
2021/03/07 01:12:47;;;;;;;9.82;2.75;;;-5.20;68.20;;;;;;5087633;28;20059;-76
2021/03/07 01:15:14;;;;;;;5.30;2.90;;;-5.20;67.80;;;;;;5093996;28;20104;-76
2021/03/07 01:17:39;;;;;;;5.10;2.33;;;-5.20;68.20;;;;;;5094452;28;20024;-77
2021/03/07 01:20:26;;;;;;;10.45;2.45;;;-5.20;68.50;;;;;;5076126;28;20530;-78
2021/03/07 01:22:52;;;;;;;3.33;1.95;;;-5.20;69.20;;;;;;5075002;28;20059;-76
2021/03/07 01:25:23;;;;;;;2.20;1.65;;;-5.20;69.60;;;;;;5094242;28;20132;-76
2021/03/07 01:27:49;;;;;;;2.30;2.00;;;-5.20;70.40;;;;;;5082939;28;20066;-75
2021/03/07 01:30:18;;;;;;;2.75;1.67;;;-5.30;71.40;;;;;;5093896;28;20019;-76
2021/03/07 01:32:44;;;;;;;3.28;1.13;;;-5.30;72.10;;;;;;5076110;28;20111;-76
2021/03/07 01:35:10;;;;;;;7.00;2.83;;;-5.40;73.30;;;;;;5094059;28;20095;-77
2021/03/07 01:37:36;;;;;;;2.10;1.77;;;-5.40;74.30;;;;;;5094405;28;20020;-75
2021/03/07 01:40:09;;;;;;;4.68;1.85;;;-5.40;75.00;;;;;;5094102;28;20024;-75
2021/03/07 01:42:35;;;;;;;4.72;1.92;;;-5.40;75.50;;;;;;5094223;28;20476;-75
2021/03/07 01:45:01;;;;;;;5.50;3.28;;;-5.40;76.00;;;;;;5080964;28;20069;-75
2021/03/07 01:47:32;;;;;;;4.72;2.10;;;-5.40;76.60;;;;;;5075961;28;20077;-75
2021/03/07 01:50:00;;;;;;;5.28;1.90;;;-5.40;77.10;;;;;;5094286;28;20406;-76
2021/03/07 01:52:26;;;;;;;;;;;-5.50;77.60;;;;;;5094406;28;20012;-75
2021/03/07 01:54:52;;;;;;;1.73;1.45;;;-5.40;77.70;;;;;;5094118;28;19904;-76
2021/03/07 01:57:20;;;;;;;4.53;2.60;;;-5.50;78.20;;;;;;5089910;28;20465;-75
2021/03/07 01:59:50;;;;;;;7.53;2.05;;;-5.50;78.80;;;;;;5093545;28;20068;-77
2021/03/07 02:02:16;;;;;;;4.68;1.65;;;-5.50;79.20;;;;;;5093674;28;20032;-76
2021/03/07 02:04:42;;;;;;;5.28;2.00;;;-5.50;79.60;;;;;;5093856;28;20380;-76
2021/03/07 02:07:08;;;;;;;2.33;1.65;;;-5.60;80.00;;;;;;5093487;28;20024;-74
2021/03/07 02:09:34;;;;;;;2.65;2.45;;;-5.60;80.40;;;;;;5093764;28;20028;-76
2021/03/07 02:12:01;;;;;;;3.72;2.22;;;-5.60;80.50;;;;;;5094067;28;20074;-75
2021/03/07 02:14:30;;;;;;;4.05;1.83;;;-5.50;80.60;;;;;;5093536;28;20012;-75
2021/03/07 02:16:57;;;;;;;2.65;1.88;;;-5.60;80.80;;;;;;5093641;28;20028;-76
2021/03/07 02:19:29;;;;;;;;;;;-5.60;80.90;;;;;;5093640;28;20020;-75
2021/03/07 02:21:59;;;;;;;3.05;1.63;;;-5.60;81.00;;;;;;5093466;28;19922;-75
2021/03/07 02:24:25;;;;;;;7.57;2.63;;;-5.60;81.40;;;;;;5093429;28;20027;-76
2021/03/07 02:26:52;;;;;;;2.40;1.70;;;-5.60;81.40;;;;;;5085637;28;20433;-75
2021/03/07 02:29:20;;;;;;;3.67;1.70;;;-5.60;81.40;;;;;;5073305;28;20027;-76
2021/03/07 02:32:05;;;;;;;1.90;1.55;;;-5.60;81.30;;;;;;5073286;28;20017;-75
2021/03/07 02:34:32;;;;;;;3.47;1.88;;;-5.60;81.20;;;;;;5072981;28;20020;-77
2021/03/07 02:37:01;;;;;;;1.83;1.38;;;-5.60;80.90;;;;;;5073139;28;20390;-75
2021/03/07 02:39:34;;;;;;;1.30;1.20;;;-5.60;80.70;;;;;;5072969;28;20079;-76
2021/03/07 02:42:04;;;;;;;3.70;1.80;;;-5.60;80.70;;;;;;5041839;28;20493;-75
2021/03/07 02:44:34;;;;;;;4.28;1.80;;;-5.60;80.80;;;;;;5054886;28;20071;-76
2021/03/07 02:47:01;;;;;;;3.30;2.17;;;-5.60;80.80;;;;;;5072622;28;20025;-75
2021/03/07 02:49:29;;;;;;;2.93;2.43;;;-5.60;80.80;;;;;;5072809;28;20485;-76
2021/03/07 02:51:57;;;;;;;2.17;1.63;;;-5.50;80.60;;;;;;5072692;28;20017;-75
2021/03/07 02:54:25;;;;;;;1.50;1.02;;;-5.40;80.40;;;;;;5054892;28;20165;-76
2021/03/07 02:56:54;;;;;;;4.80;2.15;;;-5.40;80.30;;;;;;5072682;28;20059;-75
2021/03/07 02:59:22;;;;;;;3.75;2.00;;;-5.40;80.20;;;;;;5072691;28;20027;-77
2021/03/07 03:01:57;;;;;;;5.65;2.20;;;-5.30;80.20;;;;;;5072389;28;20037;-77
2021/03/07 03:04:24;;;;;;;6.32;2.70;;;-5.30;80.20;;;;;;5069730;28;20555;-76
2021/03/07 03:06:52;;;;;;;2.17;1.98;;;-5.30;80.20;;;;;;5054824;28;20496;-78
2021/03/07 03:09:20;;;;;;;4.47;2.38;;;-5.20;80.20;;;;;;5054264;28;20024;-75
2021/03/07 03:11:48;;;;;;;2.67;1.75;;;-5.20;80.50;;;;;;5072380;28;20048;-77
2021/03/07 03:14:15;;;;;;;4.80;1.88;;;-5.20;80.70;;;;;;5072598;28;20103;-78
2021/03/07 03:16:50;;;;;;;3.15;2.20;;;-5.20;80.80;;;;;;5055308;28;20082;-75
2021/03/07 03:19:18;;;;;;;3.90;1.80;;;-5.10;81.00;;;;;;5054749;28;20111;-76
2021/03/07 03:21:45;;;;;;;2.53;1.65;;;-5.10;81.20;;;;;;5072642;28;20038;-75
2021/03/07 03:24:12;;;;;;;3.08;2.22;;;-5.10;81.30;;;;;;5072240;28;20020;-74
2021/03/07 03:26:39;;;;;;;5.88;1.88;;;-5.10;81.30;;;;;;5072013;28;20044;-77
2021/03/07 03:29:07;;;;;;;7.15;2.17;;;-5.00;81.40;;;;;;5072164;28;20070;-77
2021/03/07 03:31:34;;;;;;;4.45;2.90;;;-5.00;81.60;;;;;;5054155;28;20021;-76
2021/03/07 03:34:01;;;;;;;3.85;2.20;;;-5.00;81.80;;;;;;5072400;28;20040;-75
2021/03/07 03:36:29;;;;;;;5.90;3.38;;;-5.00;82.10;;;;;;5053895;28;20036;-77
2021/03/07 03:38:59;;;;;;;2.67;1.92;;;-5.00;82.30;;;;;;5053979;28;20504;-76
2021/03/07 03:41:33;;;;;;;3.47;1.88;;;-5.00;83.00;;;;;;5071829;28;20459;-77
2021/03/07 03:44:03;;;;;;;5.10;2.70;;;-5.00;83.60;;;;;;5071946;28;20027;-76
2021/03/07 03:46:33;;;;;;;4.65;2.53;;;-5.00;84.30;;;;;;5053522;28;20115;-75
2021/03/07 03:49:07;;;;;;;2.50;2.05;;;-5.00;85.00;;;;;;5072060;28;20016;-77
2021/03/07 03:51:40;;;;;;;3.38;2.30;;;-5.00;85.50;;;;;;5071101;28;20097;-77
2021/03/07 03:54:08;;;;;;;7.22;2.58;;;-4.90;85.80;;;;;;5071802;28;20358;-77
2021/03/07 03:56:35;;;;;;;6.53;2.30;;;-4.90;86.00;;;;;;5071282;28;20031;-76
2021/03/07 03:59:02;;;;;;;5.07;2.35;;;-4.80;86.10;;;;;;5071730;28;20525;-75
2021/03/07 04:01:29;;;;;;;2.67;1.80;;;-4.80;85.90;;;;;;5071739;28;20033;-75
2021/03/07 04:03:56;;;;;;;6.03;2.30;;;-4.80;86.20;;;;;;5071295;28;20016;-75
2021/03/07 04:06:27;;;;;;;3.78;2.53;;;-4.90;86.80;;;;;;5071858;28;20512;-76
2021/03/07 04:08:54;;;;;;;6.18;2.22;;;-4.80;87.50;;;;;;5071396;28;20015;-75
2021/03/07 04:11:24;;;;;;;4.65;2.15;;;-4.80;87.60;;;;;;5071832;28;20023;-76
2021/03/07 04:13:52;;;;;;;6.65;3.33;;;-4.80;87.80;;;;;;5071473;28;20052;-77
2021/03/07 04:16:18;;;;;;;7.47;2.92;;;-4.90;87.90;;;;;;5037172;28;20020;-76
2021/03/07 04:18:46;;;;;;;6.22;2.60;;;-4.80;88.20;;;;;;5071253;28;20108;-76
2021/03/07 04:21:12;;;;;;;;;;;-4.80;88.10;;;;;;5053919;28;20147;-76
2021/03/07 04:23:38;;;;;;;3.08;1.77;;;-4.80;87.80;;;;;;5074927;28;19912;-75
2021/03/07 04:26:04;;;;;;;6.68;2.13;;;-4.90;87.80;;;;;;5066968;28;20045;-76
2021/03/07 04:28:31;;;;;;;6.63;2.90;;;-4.90;88.40;;;;;;5076692;28;20048;-75
2021/03/07 04:30:57;;;;;;;2.60;2.30;;;-4.90;88.00;;;;;;5076469;28;20032;-77
2021/03/07 04:33:24;;;;;;;3.05;2.13;;;-4.80;88.10;;;;;;5102455;28;20027;-76
2021/03/07 04:35:50;;;;;;;3.13;2.37;;;-4.80;87.90;;;;;;5091730;28;20408;-76
2021/03/07 04:38:16;;;;;;;5.57;2.63;;;-4.70;88.00;;;;;;5091694;28;20618;-76
2021/03/07 04:40:42;;;;;;;4.40;2.38;;;-4.70;87.80;;;;;;5095393;28;20024;-76
2021/03/07 04:43:08;;;;;;;4.85;2.70;;;-4.60;87.70;;;;;;5095053;28;20437;-76
2021/03/07 04:45:35;;;;;;;4.03;2.22;;;-4.60;87.50;;;;;;5095286;28;20374;-75
2021/03/07 04:48:02;;;;;;;3.13;2.22;;;-4.60;87.60;;;;;;5095390;28;20012;-78
2021/03/07 04:50:28;;;;;;;3.90;2.15;;;-4.70;87.70;;;;;;5095129;28;20043;-76
2021/03/07 04:52:54;;;;;;;3.80;2.15;;;-4.70;87.60;;;;;;5076605;28;20476;-77
2021/03/07 04:55:20;;;;;;;4.28;2.20;;;-4.70;88.00;;;;;;5094769;28;20503;-75
2021/03/07 04:57:46;;;;;;;2.42;2.13;;;-4.70;88.10;;;;;;5091414;28;20020;-76
2021/03/07 05:00:15;;;;;;;4.97;2.40;;;-4.70;88.40;;;;;;5094646;28;20012;-76
2021/03/07 05:02:41;;;;;;;4.82;1.98;;;-4.70;88.60;;;;;;5094678;28;20035;-75
2021/03/07 05:05:07;;;;;;;4.05;2.22;;;-4.60;88.90;;;;;;5093887;28;20012;-77
2021/03/07 05:07:34;;;;;;;5.30;2.30;;;-4.60;89.20;;;;;;5076508;28;20228;-75
2021/03/07 05:10:00;;;;;;;2.85;1.70;;;-4.60;89.70;;;;;;5092222;28;20016;-77
2021/03/07 05:12:26;;;;;;;2.20;2.00;;;-4.60;89.90;;;;;;5092836;28;20035;-78
2021/03/07 05:14:51;;;;;;;3.22;2.15;;;-4.60;90.20;;;;;;5094516;28;20016;-77
2021/03/07 05:17:17;;;;;;;4.38;1.85;;;-4.70;90.40;;;;;;5093526;28;20485;-76
2021/03/07 05:19:44;;;;;;;4.35;2.67;;;-4.60;90.60;;;;;;5094350;28;20051;-78
2021/03/07 05:22:10;;;;;;;4.38;2.13;;;-4.60;90.80;;;;;;5094439;28;20032;-75
2021/03/07 05:24:37;;;;;;;4.88;2.47;;;-4.60;90.80;;;;;;5093657;28;20024;-75
2021/03/07 05:27:06;;;;;;;4.43;2.50;;;-4.60;90.80;;;;;;5090514;28;20048;-76
2021/03/07 05:29:36;;;;;;;5.60;2.67;;;-4.60;90.90;;;;;;5086024;28;20390;-76
2021/03/07 05:32:04;;;;;;;6.82;3.03;;;-4.60;91.00;;;;;;5090458;28;20031;-77
2021/03/07 05:34:30;;;;;;;;;;;-4.60;90.90;;;;;;5073071;28;20021;-76
2021/03/07 05:36:55;;;;;;;3.95;2.15;;;-4.60;90.80;;;;;;5090089;28;19927;-77
2021/03/07 05:39:23;;;;;;;2.72;1.90;;;-4.60;90.90;;;;;;5087251;28;20048;-74
2021/03/07 05:41:49;;;;;;;3.28;1.77;;;-4.60;91.20;;;;;;5092403;28;20032;-77
2021/03/07 05:44:15;;;;;;;3.28;2.15;;;-4.50;91.20;;;;;;5078610;28;20393;-75
2021/03/07 05:46:41;;;;;;;4.65;2.85;;;-4.50;91.20;;;;;;5081272;28;20462;-76
2021/03/07 05:49:08;;;;;;;4.38;2.47;;;-4.50;91.40;;;;;;5072258;28;20077;-78
2021/03/07 05:51:35;;;;;;;8.85;3.08;;;-4.50;91.50;;;;;;5079933;28;20028;-75
2021/03/07 05:54:01;;;;;;;3.95;2.55;;;-4.40;91.60;;;;;;5081539;28;20028;-76
2021/03/07 05:56:28;;;;;;;4.88;3.42;;;-4.30;91.70;;;;;;5078160;28;20099;-75
2021/03/07 05:58:58;;;;;;;4.05;2.85;;;-4.20;91.60;;;;;;5075212;28;20074;-75
2021/03/07 06:01:24;;;;;;;6.15;2.83;;;-4.20;91.60;;;;;;5072728;28;20051;-77
2021/03/07 06:03:50;;;;;;;5.57;2.50;;;-4.10;91.50;;;;;;5082228;28;20016;-76
2021/03/07 06:06:16;;;;;;;3.63;2.80;;;-4.10;91.40;;;;;;5075373;28;20111;-74
2021/03/07 06:08:42;;;;;;;6.32;2.95;;;-4.00;91.40;;;;;;5092540;28;20024;-76
2021/03/07 06:11:08;;;;;;;3.95;2.40;;;-4.00;91.40;;;;;;5079944;28;20021;-76
2021/03/07 06:13:39;;;;;;;5.32;3.20;;;-3.90;91.40;;;;;;5078018;28;20032;-77
2021/03/07 06:16:12;;;;;;;4.95;2.90;;;-3.90;91.50;;;;;;5081184;28;20016;-78
2021/03/07 06:18:45;;;;;;;7.60;3.10;;;-3.80;91.60;;;;;;5078217;28;20020;-78
2021/03/07 06:21:32;;;;;;;4.93;3.70;;;-3.80;91.50;;;;;;5072638;28;20031;-78
2021/03/07 06:23:59;;;;;;;;;;;-3.80;91.70;;;;;;5095631;28;20480;-78
2021/03/07 06:26:25;;;;;;;2.60;2.35;;;-3.70;91.60;;;;;;5075807;28;19923;-75
2021/03/07 06:29:09;;;;;;;5.60;3.33;;;-3.70;91.60;;;;;;5075876;28;20035;-77
2021/03/07 06:31:35;;;;;;;5.88;3.42;;;-3.60;91.60;;;;;;5078833;28;20031;-76
2021/03/07 06:34:02;;;;;;;4.00;3.60;;;-3.60;91.40;;;;;;5082181;28;20421;-77
2021/03/07 06:36:31;;;;;;;3.67;2.97;;;-3.50;91.40;;;;;;5057926;28;20485;-77
2021/03/07 06:39:00;;;;;;;5.07;2.55;;;-3.50;91.40;;;;;;5092691;28;20020;-79
2021/03/07 06:41:28;;;;;;;8.10;3.53;;;-3.50;91.50;;;;;;5074436;28;20040;-78
2021/03/07 06:44:19;;;;;;;5.47;3.17;;;-3.40;91.60;;;;;;5089842;28;20388;-80
2021/03/07 06:46:47;;;;;;;8.70;3.60;;;-3.30;91.70;;;;;;5058417;28;20020;-78
2021/03/07 06:49:26;;;;;;;6.93;3.80;;;-3.30;91.60;;;;;;5074717;28;20411;-78
2021/03/07 06:51:54;;;;;;;3.80;2.03;;;-3.20;91.70;;;;;;5092529;28;20069;-80
2021/03/07 06:54:21;;;;;;;5.65;2.13;;;-3.20;91.80;;;;;;5071367;28;20031;-79
2021/03/07 06:56:49;;;;;;;5.40;3.20;;;-3.20;91.50;;;;;;5090025;28;20051;-79
2021/03/07 06:59:20;;;;;;;3.83;3.10;;;-3.20;91.80;;;;;;5092872;28;20111;-78
2021/03/07 07:01:48;;;;;;;4.30;2.78;;;-3.10;91.80;;;;;;5093111;28;20039;-80
2021/03/07 07:04:15;;;;;;;10.23;2.90;;;-3.10;91.60;;;;;;5092913;28;20447;-79
2021/03/07 07:06:59;;;;;;;;;;;-3.10;91.60;;;;;;5074484;28;20120;-78
2021/03/07 07:09:28;;;;;;;6.15;4.45;;;-3.10;91.50;;;;;;5084426;28;19912;-76
2021/03/07 07:11:54;;;;;;;4.43;3.13;;;-3.10;91.70;;;;;;5092447;28;20081;-79
2021/03/07 07:14:40;;;;;;;6.22;3.13;;;-3.00;91.80;;;;;;5092296;28;20016;-79
2021/03/07 07:17:12;;;;;;;3.50;1.83;;;-2.90;91.70;;;;;;5091015;28;20024;-77
2021/03/07 07:19:39;;;;;;;6.57;3.13;;;-2.90;91.60;;;;;;5091470;28;20024;-80
2021/03/07 07:22:06;;;;;;;4.87;4.10;;;-2.80;91.70;;;;;;5081692;28;20059;-77
2021/03/07 07:24:32;;;;;;;5.90;3.60;;;-2.80;91.70;;;;;;5088899;28;20412;-80
2021/03/07 07:26:58;;;;;;;7.90;4.10;;;-2.80;91.50;;;;;;5091315;28;20500;-79
2021/03/07 07:29:27;;;;;;;8.75;3.83;;;-2.70;91.40;;;;;;5090796;28;20024;-79
2021/03/07 07:32:05;;;;;;;9.98;4.18;;;-2.70;91.20;;;;;;5073441;28;20513;-80
2021/03/07 07:34:46;;;;;;;6.43;3.58;;;-2.70;91.10;;;;;;5075588;28;20035;-78
2021/03/07 07:37:37;;;;;;;5.03;2.75;;;-2.60;91.20;;;;;;5060247;28;20115;-78
2021/03/07 07:40:04;;;;;;;6.30;4.05;;;-2.60;91.20;;;;;;5073300;28;20089;-80
2021/03/07 07:42:34;;;;;;;7.75;3.45;;;-2.60;90.90;;;;;;5082169;28;20032;-79
2021/03/07 07:45:06;;;;;;;6.63;3.88;;;-2.60;91.30;;;;;;5071693;28;20073;-82
2021/03/07 07:47:42;;;;;;;9.32;3.97;;;-2.60;91.30;;;;;;5072773;28;20017;-81
2021/03/07 07:52:59;;;;;;;6.93;4.22;;;-2.40;91.20;;;;;;5090572;28;20449;-79
2021/03/07 07:55:48;;;;;;;6.72;3.80;;;-2.40;90.90;;;;;;5088509;28;20056;-80
2021/03/07 07:58:36;;;;;;;8.02;4.20;;;-2.40;90.40;;;;;;5077325;28;20029;-81
2021/03/07 08:01:09;;;;;;;6.22;3.67;;;-2.40;90.40;;;;;;5075212;28;20032;-80
2021/03/07 08:03:35;;;;;;;14.25;4.90;;;-2.40;90.50;;;;;;5079530;28;20024;-80
2021/03/07 08:06:06;;;;;;;7.80;3.67;;;-2.40;90.40;;;;;;5075210;28;20032;-82
2021/03/07 08:08:43;;;;;;;5.60;3.45;;;-2.40;90.50;;;;;;5078440;28;20019;-82
2021/03/07 08:11:18;;;;;;;;;;;-2.40;90.70;;;;;;5077609;28;20033;-80
2021/03/07 08:13:46;;;;;;;3.95;2.58;;;-2.40;90.60;;;;;;5077841;28;19908;-80
2021/03/07 08:16:13;;;;;;;5.30;3.28;;;-2.50;90.90;;;;;;5074691;28;20055;-80
2021/03/07 08:18:55;;;;;;;5.68;3.05;;;-2.50;91.10;;;;;;5075569;28;20028;-82
2021/03/07 08:21:24;;;;;;;7.28;2.78;;;-2.40;91.10;;;;;;5095769;28;20145;-83
2021/03/07 08:23:55;;;;;;;4.70;3.05;;;-2.40;91.20;;;;;;5094983;28;20039;-80
2021/03/07 08:26:23;;;;;;;7.03;4.82;;;-2.40;91.30;;;;;;5092838;28;20040;-78
2021/03/07 08:28:49;;;;;;;5.22;3.38;;;-2.30;91.20;;;;;;5095643;28;20418;-78
2021/03/07 08:31:20;;;;;;;6.63;3.60;;;-2.30;91.30;;;;;;5095306;28;20028;-76
2021/03/07 08:33:47;;;;;;;10.45;4.32;;;-2.20;91.40;;;;;;5095654;28;20024;-79
2021/03/07 08:36:25;;;;;;;8.85;4.05;;;-2.10;91.40;;;;;;5072379;28;20047;-79
2021/03/07 08:38:56;;;;;;;8.27;4.15;;;-2.10;91.30;;;;;;5074252;28;20029;-79
2021/03/07 08:41:34;;;;;;;9.82;3.88;;;-2.00;91.20;;;;;;5096346;28;20040;-77
2021/03/07 08:44:09;;;;;;;9.48;3.33;;;-1.90;91.10;;;;;;5095583;28;20095;-76
2021/03/07 08:46:41;;;;;;;9.27;3.90;;;-1.90;91.20;;;;;;5094721;28;20035;-78
2021/03/07 08:49:13;;;;;;;11.65;4.40;;;-1.80;90.90;;;;;;5094998;28;20024;-77
2021/03/07 08:51:42;;;;;;;6.35;4.18;;;-1.80;90.70;;;;;;5076738;28;20439;-77
2021/03/07 08:54:10;;;;;;;5.65;4.25;;;-1.80;90.40;;;;;;5095265;28;20027;-76
2021/03/07 08:56:38;;;;;;;6.82;4.38;;;-1.70;90.40;;;;;;5095121;28;20031;-77
2021/03/07 08:59:08;;;;;;;8.55;4.15;;;-1.70;90.50;;;;;;5094941;28;20028;-78
2021/03/07 09:01:34;;;;;;;8.77;3.55;;;-1.60;90.50;;;;;;5076650;28;20043;-78
2021/03/07 09:04:03;;;;;;;6.10;4.25;;;-1.60;90.50;;;;;;5094205;28;20044;-79
2021/03/07 09:06:32;;;;;;;10.43;4.38;;;-1.60;90.40;;;;;;5077072;28;20027;-80
2021/03/07 09:09:08;;;;;;;11.80;3.97;;;-1.60;90.40;;;;;;5094455;28;20140;-80
2021/03/07 09:11:47;;;;;;;9.83;5.13;;;-1.50;90.30;;;;;;5094984;28;20028;-78
2021/03/07 09:14:13;;;;;;;6.65;4.30;;;-1.50;90.30;;;;;;5090086;28;20062;-78
2021/03/07 09:16:44;;;;;;;7.15;5.53;;;-1.60;90.50;;;;;;5094918;28;20031;-79
2021/03/07 09:19:34;;;;;;;8.13;5.07;;;-1.50;90.60;;;;;;5094487;28;20073;-75
2021/03/07 09:22:21;;;;;;;10.30;6.20;;;-1.50;90.70;;;;;;5076324;28;20032;-77
2021/03/07 09:24:55;;;;;;;9.60;4.25;;;-1.40;91.00;;;;;;5093523;28;20039;-77
2021/03/07 09:27:22;;;;;;;7.38;4.38;;;-1.50;91.00;;;;;;5094306;28;20048;-77
2021/03/07 09:30:13;;;;;;;12.18;3.67;;;-1.40;91.00;;;;;;5093556;28;20020;-77
2021/03/07 09:32:45;;;;;;;19.15;5.97;;;-1.30;90.70;;;;;;5064790;28;20027;-78
2021/03/07 09:35:26;;;;;;;7.90;4.32;;;-1.30;90.70;;;;;;5093525;28;20107;-77
2021/03/07 09:38:09;;;;;;;9.45;4.88;;;-1.30;90.80;;;;;;5075242;28;20112;-75
2021/03/07 09:40:40;;;;;;;7.35;4.50;;;-1.20;90.70;;;;;;5076056;28;20016;-77
2021/03/07 09:43:08;;;;;;;6.97;4.45;;;-1.10;90.70;;;;;;5093407;28;20114;-79
2021/03/07 09:45:38;;;;;;;9.18;4.95;;;-1.00;90.60;;;;;;5093906;28;20012;-75
2021/03/07 09:48:06;;;;;;;9.93;6.40;;;-0.90;90.00;;;;;;5075228;28;20385;-77
2021/03/07 09:50:32;;;;;;;5.82;4.82;;;-0.80;89.90;;;;;;5093648;28;20026;-77
2021/03/07 09:52:58;;;;;;;8.23;4.90;;;-0.70;89.70;;;;;;5093505;28;20028;-78
2021/03/07 09:55:32;;;;;;;8.15;4.53;;;-0.60;89.90;;;;;;5092926;28;20016;-78
2021/03/07 09:58:04;;;;;;;8.32;3.55;;;-0.60;90.00;;;;;;5075397;28;20043;-78
2021/03/07 10:00:31;;;;;;;6.00;4.00;;;-0.50;90.00;;;;;;5092712;28;20418;-78
2021/03/07 10:02:58;;;;;;;7.85;5.68;;;-0.40;90.20;;;;;;5093382;28;20059;-78
2021/03/07 10:05:24;;;;;;;8.23;6.40;;;-0.30;90.00;;;;;;5092748;28;20016;-75
2021/03/07 10:07:49;;;;;;;9.55;4.22;;;-0.30;88.70;;;;;;5093140;28;20023;-77
2021/03/07 10:10:21;;;;;;;9.93;4.65;;;-0.30;88.50;;;;;;5092380;28;20024;-77
2021/03/07 10:13:00;;;;;;;6.82;4.85;;;-0.30;88.60;;;;;;5075348;28;20023;-77
2021/03/07 10:15:40;;;;;;;8.80;5.60;;;-0.40;87.60;;;;;;5092470;28;20031;-78
2021/03/07 10:18:16;;;;;;;10.05;4.90;;;-0.40;87.90;;;;;;5092813;28;20020;-76
2021/03/07 10:20:45;;;;;;;8.48;5.78;;;-0.50;88.00;;;;;;5074992;28;20027;-77
2021/03/07 10:23:14;;;;;;;5.30;4.78;;;-0.60;88.20;;;;;;5093145;28;20370;-79
2021/03/07 10:25:42;;;;;;;6.00;4.78;;;-0.60;87.60;;;;;;5077310;28;20096;-77
2021/03/07 10:28:09;;;;;;;9.07;4.80;;;-0.60;87.50;;;;;;5093402;28;20058;-78
2021/03/07 10:30:43;;;;;;;7.32;5.00;;;-0.70;87.60;;;;;;5093403;28;20024;-78
2021/03/07 10:33:14;;;;;;;7.63;5.80;;;-0.70;88.60;;;;;;5089269;28;20020;-77
2021/03/07 10:36:03;;;;;;;8.40;5.05;;;-0.70;88.90;;;;;;5092927;28;20068;-77
2021/03/07 10:38:30;;;;;;;8.45;5.75;;;-0.60;89.10;;;;;;5093026;28;20016;-77
2021/03/07 10:40:56;;;;;;;7.63;5.22;;;-0.70;89.40;;;;;;5093253;28;20023;-77
2021/03/07 10:43:23;;;;;;;9.50;5.75;;;-0.60;89.70;;;;;;5093224;28;20028;-77
2021/03/07 10:45:51;;;;;;;7.38;5.78;;;-0.60;89.80;;;;;;5093194;28;20008;-77
2021/03/07 10:48:18;;;;;;;7.13;5.97;;;-0.50;90.00;;;;;;5087868;28;20043;-76
2021/03/07 10:50:49;;;;;;;10.48;6.53;;;-0.40;90.10;;;;;;5093150;28;20023;-76
2021/03/07 10:53:17;;;;;;;12.20;7.00;;;-0.30;90.00;;;;;;5093143;28;20052;-78
2021/03/07 10:55:51;;;;;;;8.68;5.63;;;-0.20;89.60;;;;;;5078857;28;20099;-76
2021/03/07 10:58:17;;;;;;;12.93;7.50;;;-0.20;88.70;;;;;;5080733;28;20038;-76
2021/03/07 11:00:43;;;;;;;9.85;6.60;;;-0.10;88.20;;;;;;5094087;28;20022;-76
2021/03/07 11:03:09;;;;;;;11.25;6.63;;;-0.10;87.80;;;;;;5093674;28;20020;-77
2021/03/07 11:05:35;;;;;;;13.52;7.32;;;0.00;87.60;;;;;;5092662;28;20016;-79
2021/03/07 11:08:04;;;;;;;6.88;5.38;;;0.00;87.30;;;;;;5093176;28;20099;-77
2021/03/07 11:10:32;;;;;;;6.70;5.85;;;0.00;87.80;;;;;;5092991;28;20012;-78
2021/03/07 11:12:58;;;;;;;9.07;5.93;;;0.00;87.70;;;;;;5080698;28;20031;-78
2021/03/07 11:15:24;;;;;;;8.82;5.88;;;0.10;88.70;;;;;;5092664;28;20397;-79
2021/03/07 11:17:50;;;;;;;8.77;6.93;;;0.10;87.80;;;;;;5077848;28;20473;-77
2021/03/07 11:20:17;;;;;;;10.70;5.35;;;0.10;88.30;;;;;;5092300;28;20024;-77
2021/03/07 11:22:43;;;;;;;10.00;6.25;;;0.10;88.40;;;;;;5086495;28;20190;-77
2021/03/07 11:25:35;;;;;;;9.30;6.20;;;0.00;88.10;;;;;;5088725;28;20084;-76
2021/03/07 11:28:02;;;;;;;10.23;5.63;;;0.00;87.80;;;;;;5071754;28;20052;-78
2021/03/07 11:30:30;;;;;;;8.98;5.20;;;0.00;88.50;;;;;;5070541;28;20021;-76
2021/03/07 11:32:56;;;;;;;8.65;6.20;;;0.00;89.90;;;;;;5072307;28;20524;-77
2021/03/07 11:35:24;;;;;;;8.88;6.38;;;0.00;89.60;;;;;;5065845;28;20025;-77
2021/03/07 11:37:56;;;;;;;12.43;6.55;;;0.00;89.80;;;;;;5066987;28;20025;-75
2021/03/07 11:40:22;;;;;;;10.82;5.72;;;-0.10;89.40;;;;;;5079934;28;20104;-81
2021/03/07 11:42:48;;;;;;;9.32;5.65;;;0.00;89.50;;;;;;5079104;28;20112;-77
2021/03/07 11:45:14;;;;;;;13.98;6.95;;;-0.10;90.00;;;;;;5076926;28;20465;-78
2021/03/07 11:47:40;;;;;;;9.40;5.85;;;-0.10;89.60;;;;;;5065821;28;20354;-78
2021/03/07 11:50:07;;;;;;;8.50;5.32;;;-0.10;89.00;;;;;;5067492;28;20016;-75
2021/03/07 11:52:33;;;;;;;8.80;5.57;;;-0.10;89.50;;;;;;5070041;28;20029;-77
2021/03/07 11:54:59;;;;;;;10.70;6.80;;;-0.10;89.70;;;;;;5078136;28;20020;-77
2021/03/07 11:57:25;;;;;;;12.82;6.63;;;0.00;89.30;;;;;;5070109;28;20035;-80
2021/03/07 11:59:51;;;;;;;7.57;6.60;;;0.10;90.00;;;;;;5072107;28;20050;-81
2021/03/07 12:02:17;;;;;;;12.05;6.10;;;0.10;89.00;;;;;;5079532;28;20038;-78
2021/03/07 12:04:51;;;;;;;9.15;7.43;;;0.20;88.90;;;;;;5073127;28;20031;-80
2021/03/07 12:07:25;;;;;;;11.52;7.75;;;0.20;89.30;;;;;;5071802;28;20013;-79
2021/03/07 12:10:00;;;;;;;11.00;7.95;;;0.20;88.90;;;;;;5067856;28;20116;-81
2021/03/07 12:12:26;;;;;;;18.50;9.18;;;0.30;88.20;;;;;;5077850;28;20103;-79
2021/03/07 12:14:52;;;;;;;9.55;6.88;;;0.30;89.00;;;;;;5074860;28;20114;-79
2021/03/07 12:17:21;;;;;;;10.52;6.03;;;0.30;88.70;;;;;;5076712;28;20044;-81
2021/03/07 12:19:48;;;;;;;12.52;7.28;;;0.30;88.00;;;;;;5064771;28;20079;-79
2021/03/07 12:22:14;;;;;;;12.30;7.03;;;0.30;89.30;;;;;;5072862;28;20052;-79
2021/03/07 12:24:40;;;;;;;9.35;6.43;;;0.30;90.00;;;;;;5088632;28;20091;-79
2021/03/07 12:27:07;;;;;;;10.55;7.85;;;0.20;89.40;;;;;;5090589;28;20135;-78
2021/03/07 12:29:34;;;;;;;8.73;5.97;;;0.20;90.00;;;;;;5074398;28;20078;-79
2021/03/07 12:32:01;;;;;;;5.60;3.33;;;0.10;89.90;;;;;;5089706;28;20050;-79
2021/03/07 12:34:27;;;;;;;4.47;3.40;;;0.10;89.00;;;;;;5074750;28;20070;-80
2021/03/07 12:36:53;;;;;;;6.15;3.03;;;0.10;89.00;;;;;;5088195;28;20586;-78
2021/03/07 12:39:20;;;;;;;7.55;4.53;;;0.10;87.70;;;;;;5082789;28;20028;-78
2021/03/07 12:41:46;;;;;;;4.70;3.58;;;0.00;87.60;;;;;;5085400;28;20067;-79
2021/03/07 12:44:15;;;;;;;3.83;3.13;;;0.00;87.20;;;;;;5088987;28;20063;-79
2021/03/07 12:46:41;;;;;;;5.35;3.15;;;-0.10;86.50;;;;;;5082295;28;20044;-78
2021/03/07 12:49:08;;;;;;;6.30;3.47;;;-0.10;87.30;;;;;;5078445;28;20020;-78
2021/03/07 12:51:35;;;;;;;5.53;3.28;;;-0.10;87.80;;;;;;5081419;28;20024;-80
2021/03/07 12:54:01;;;;;;;12.93;4.80;;;-0.10;88.40;;;;;;5082866;28;20024;-78
2021/03/07 12:56:27;;;;;;;6.50;3.28;;;-0.20;88.50;;;;;;5081841;28;20089;-82
2021/03/07 12:58:53;;;;;;;6.25;2.63;;;-0.20;88.90;;;;;;5086950;28;20392;-81
2021/03/07 13:01:19;;;;;;;3.72;2.42;;;-0.10;88.60;;;;;;5060825;28;20047;-79